createdAt,value
2023-04-02T00:01:06.490Z,52.06
2023-04-02T00:11:12.055Z,52.10
2023-04-02T00:21:17.237Z,46.57
2023-04-02T00:31:22.431Z,50.40
2023-04-02T00:41:27.938Z,50.90
2023-04-02T00:51:33.656Z,51.26
2023-04-02T01:01:39.111Z,51.65
2023-04-02T01:11:44.380Z,51.66
2023-04-02T01:21:49.618Z,51.96
2023-04-02T01:31:55.002Z,52.17
2023-04-02T01:42:00.312Z,51.81
2023-04-02T01:52:05.503Z,52.33
2023-04-02T02:02:10.892Z,52.06
2023-04-02T02:12:16.543Z,52.13
2023-04-02T02:22:21.657Z,52.40
2023-04-02T02:32:26.743Z,52.15
2023-04-02T02:42:32.357Z,52.41
2023-04-02T02:52:37.865Z,52.42
2023-04-02T03:02:44.907Z,52.80
2023-04-02T03:12:50.230Z,52.67
2023-04-02T03:22:55.344Z,52.53
2023-04-02T03:33:00.420Z,52.24
2023-04-02T03:43:05.168Z,52.58
2023-04-02T03:53:10.749Z,52.55
2023-04-02T04:03:16.045Z,52.44
2023-04-02T04:13:21.402Z,52.40
2023-04-02T04:23:26.399Z,52.37
2023-04-02T04:33:31.685Z,52.59
2023-04-02T04:43:36.897Z,52.45
2023-04-02T04:53:42.082Z,52.26
2023-04-02T05:03:47.171Z,52.56
2023-04-02T05:13:52.744Z,52.27
2023-04-02T05:23:57.670Z,52.63
2023-04-02T05:34:02.852Z,52.62
2023-04-02T05:44:08.598Z,52.47
2023-04-02T05:54:14.021Z,52.66
2023-04-02T06:04:18.958Z,52.55
2023-04-02T06:14:24.427Z,52.74
2023-04-02T06:24:29.574Z,52.56
2023-04-02T06:34:34.749Z,52.95
2023-04-02T06:44:40.297Z,52.48
2023-04-02T06:54:45.609Z,52.70
2023-04-02T07:04:50.914Z,52.66
2023-04-02T07:14:56.446Z,52.85
2023-04-02T07:25:01.689Z,52.50
2023-04-02T07:35:07.090Z,52.79
2023-04-02T07:45:12.068Z,52.71
2023-04-02T07:55:17.363Z,52.68
2023-04-02T08:05:22.687Z,52.57
2023-04-02T08:15:27.752Z,52.27
2023-04-02T08:25:33.547Z,50.34
2023-04-02T08:35:39.740Z,51.13
2023-04-02T08:45:45.125Z,51.55
2023-04-02T08:55:50.890Z,51.43
2023-04-02T09:05:56.605Z,51.74
2023-04-02T09:16:01.472Z,51.60
2023-04-02T09:26:07.289Z,51.71
2023-04-02T09:36:15.073Z,51.38
2023-04-02T09:46:21.584Z,51.28
2023-04-02T09:56:27.292Z,51.19
2023-04-02T10:06:32.833Z,51.26
2023-04-02T10:16:38.335Z,51.30
2023-04-02T10:26:44.021Z,51.24
2023-04-02T10:36:50.013Z,51.40
2023-04-02T10:46:55.792Z,51.52
2023-04-02T10:57:01.315Z,51.06
2023-04-02T11:07:13.850Z,51.19
2023-04-02T11:17:16.785Z,51.27
2023-04-02T11:27:22.358Z,51.38
2023-04-02T11:37:27.258Z,51.54
2023-04-02T11:47:32.668Z,51.48
2023-04-02T11:57:38.438Z,51.54
2023-04-02T12:07:43.703Z,51.56
2023-04-02T12:17:48.900Z,51.64
2023-04-02T12:27:54.304Z,51.69
2023-04-02T12:37:59.656Z,51.74
2023-04-02T12:48:05.299Z,51.48
2023-04-02T12:58:10.982Z,51.40
2023-04-02T13:08:16.209Z,51.52
2023-04-02T13:18:21.474Z,51.37
2023-04-02T13:28:26.748Z,51.99
2023-04-02T13:38:32.406Z,51.65
2023-04-02T13:48:37.534Z,51.41
2023-04-02T13:58:43.129Z,51.41
2023-04-02T14:08:48.605Z,51.35
2023-04-02T14:18:54.031Z,51.70
2023-04-02T14:28:59.618Z,51.73
2023-04-02T14:39:04.710Z,51.74
2023-04-02T14:49:10.298Z,51.79
2023-04-02T14:59:15.319Z,51.72
2023-04-02T15:09:21.057Z,51.63
2023-04-02T15:19:26.775Z,51.58
2023-04-02T15:29:32.328Z,51.55
2023-04-02T15:39:37.856Z,51.62
2023-04-02T15:49:43.496Z,51.60
2023-04-02T15:59:49.009Z,51.60
2023-04-02T16:09:55.402Z,51.60
2023-04-02T16:20:02.120Z,51.74
2023-04-02T16:30:07.349Z,51.52
2023-04-02T16:40:12.893Z,51.55
2023-04-02T16:50:18.395Z,51.64
2023-04-02T17:00:24.105Z,51.45
2023-04-02T17:10:30.271Z,51.71
2023-04-02T17:20:35.866Z,51.57
2023-04-02T17:30:41.684Z,51.67
2023-04-02T17:40:46.732Z,51.69
2023-04-02T17:50:52.197Z,50.08
2023-04-02T18:00:57.634Z,50.08
2023-04-02T18:11:04.115Z,50.53
2023-04-02T18:21:09.177Z,50.94
2023-04-02T18:31:14.854Z,50.86
2023-04-02T18:41:21.008Z,50.76
2023-04-02T18:51:26.523Z,50.82
2023-04-02T19:01:32.092Z,50.82
2023-04-02T19:11:37.485Z,51.22
2023-04-02T19:21:43.081Z,51.93
2023-04-02T19:31:48.067Z,53.05
2023-04-02T19:41:53.559Z,53.45
2023-04-02T19:51:58.857Z,54.49
2023-04-02T20:02:04.041Z,54.84
2023-04-02T20:12:09.406Z,55.54
2023-04-02T20:22:14.431Z,56.40
2023-04-02T20:32:20.014Z,55.85
2023-04-02T20:42:25.497Z,56.10
2023-04-02T20:52:30.578Z,56.34
2023-04-02T21:02:35.589Z,55.80
2023-04-02T21:14:00.930Z,56.25
2023-04-02T21:24:05.394Z,56.22
2023-04-02T21:34:10.651Z,56.47
2023-04-02T21:44:16.186Z,56.38
2023-04-02T21:54:21.889Z,56.58
2023-04-02T22:04:26.993Z,56.87
2023-04-02T22:14:32.755Z,57.03
2023-04-02T22:24:38.002Z,57.43
2023-04-02T22:34:43.221Z,57.10
2023-04-02T22:44:48.519Z,56.69
2023-04-02T22:54:53.738Z,56.61
2023-04-02T23:04:59.255Z,56.62
2023-04-02T23:15:04.736Z,56.41
2023-04-02T23:25:09.851Z,56.64
2023-04-02T23:35:15.022Z,57.07
2023-04-02T23:45:20.245Z,57.01
2023-04-02T23:55:25.862Z,56.79
